aviador You're here:

LEZL Decoded Metar

SEVILLA in SPAIN
Report Time2017-08-18 23:30:00
UTC Time2017-08-18 23:40:27
Flight Rules vfr VFR
Wind190° at 04 kt
W.Decomp.*RWY 27: 0.8 kt HW 3.9 kt LCW
W.Rank190° ranks 17
Current wind is below 190° avg. (5.0)
Visibility9999 m
Phenomena:N/A
Clouds:N/A
Expected CloudBase > 4,000 ft AGL from Temp-Dew spread
CeilingNone
Temp26°C (ISA +11)
Dew Point16°C (54% RH)
QNH1014 hPa
Density Alt1,604 ft
Elevation102 ft
Report Wrong Elevation
Raw Report
METAR LEZL 182330Z AUTO 19004KT 150V240 9999 NCD 26/16 Q1014=

Extra information for LEZL:More info

Metar Taf Metar & Taf Last 4 Metars F.Rules Stats Wind Profile Meteogram Temp Stats Airport Information Weather charts Add Link Nearby VenuesMetar ALERT Operation Metar Decoded Social comments